Time;durP1;ratioP1;P1;durP2;ratioP2;P2;SDS_P1;SDS_P2;PMS_P1;PMS_P2;Temp;Humidity;BMP_temperature;BMP_pressure;BME280_temperature;BME280_humidity;BME280_pressure;Samples;Min_cycle;Max_cycle;Signal;HPM_P1;HPM_P2
2021/10/04 00:00:50;;;;;;;18.90;9.70;;;;;;;;;;4986916;28;20419;-38
2021/10/04 00:03:15;;;;;;;11.63;9.68;;;;;;;;;;4987136;28;20026;-37
2021/10/04 00:05:40;;;;;;;8.55;6.38;;;;;;;;;;4988408;28;20506;-37
2021/10/04 00:08:05;;;;;;;15.52;6.93;;;;;;;;;;4984659;28;20027;-36
2021/10/04 00:10:31;;;;;;;26.63;9.77;;;;;;;;;;4985939;28;20186;-37
2021/10/04 00:12:56;;;;;;;23.75;8.85;;;;;;;;;;4989053;28;20486;-37
2021/10/04 00:15:23;;;;;;;28.05;7.65;;;;;;;;;;4987344;28;20041;-38
2021/10/04 00:17:49;;;;;;;26.67;7.97;;;;;;;;;;4988686;28;20033;-39
2021/10/04 00:20:15;;;;;;;14.60;6.82;;;;;;;;;;4987553;28;20034;-37
2021/10/04 00:22:41;;;;;;;18.98;7.20;;;;;;;;;;4987995;28;20026;-38
2021/10/04 00:25:07;;;;;;;27.38;9.95;;;;;;;;;;4984999;28;20022;-37
2021/10/04 00:27:32;;;;;;;15.52;8.93;;;;;;;;;;4987188;28;20026;-37
2021/10/04 00:29:58;;;;;;;18.30;8.57;;;;;;;;;;4986313;28;20095;-38
2021/10/04 00:32:24;;;;;;;11.50;5.05;;;;;;;;;;4982042;28;20677;-37
2021/10/04 00:34:49;;;;;;;8.70;2.75;;;;;;;;;;4990023;28;20116;-36
2021/10/04 00:37:15;;;;;;;25.25;5.30;;;;;;;;;;4987509;28;20030;-36
2021/10/04 00:39:40;;;;;;;17.38;5.13;;;;;;;;;;4987643;28;20030;-35
2021/10/04 00:42:05;;;;;;;9.88;3.00;;;;;;;;;;4983827;28;20211;-37
2021/10/04 00:44:31;;;;;;;10.65;3.22;;;;;;;;;;4980733;28;20133;-38
2021/10/04 00:46:57;;;;;;;16.35;3.42;;;;;;;;;;4983647;28;20125;-37
2021/10/04 00:49:22;;;;;;;10.80;3.38;;;;;;;;;;4987469;28;20026;-36
2021/10/04 00:51:48;;;;;;;10.00;4.63;;;;;;;;;;4988320;28;20030;-37
2021/10/04 00:54:13;;;;;;;10.85;4.20;;;;;;;;;;4989899;28;20037;-37
2021/10/04 00:56:38;;;;;;;12.30;3.25;;;;;;;;;;4986817;28;20460;-37
2021/10/04 00:59:04;;;;;;;34.50;8.23;;;;;;;;;;4989391;28;20023;-37
2021/10/04 01:01:30;;;;;;;23.05;9.75;;;;;;;;;;4989681;28;20026;-37
2021/10/04 01:03:56;;;;;;;12.63;7.00;;;;;;;;;;4987978;28;20510;-40
2021/10/04 01:06:22;;;;;;;10.55;4.55;;;;;;;;;;4987231;28;20030;-38
2021/10/04 01:08:47;;;;;;;11.82;4.57;;;;;;;;;;4983452;28;20022;-36
2021/10/04 01:11:13;;;;;;;22.20;6.05;;;;;;;;;;4988269;28;20057;-38
2021/10/04 01:13:38;;;;;;;12.88;4.22;;;;;;;;;;4984899;28;20911;-37
2021/10/04 01:16:04;;;;;;;8.88;2.95;;;;;;;;;;4985719;28;20041;-38
2021/10/04 01:18:29;;;;;;;4.78;2.65;;;;;;;;;;4984772;28;20027;-36
2021/10/04 01:20:54;;;;;;;11.70;4.40;;;;;;;;;;4983009;28;20029;-37
2021/10/04 01:23:20;;;;;;;8.68;3.22;;;;;;;;;;4994292;28;20118;-38
2021/10/04 01:25:45;;;;;;;9.18;3.00;;;;;;;;;;4989023;28;20470;-43
2021/10/04 01:28:11;;;;;;;6.63;3.20;;;;;;;;;;4988871;28;20034;-39
2021/10/04 01:30:36;;;;;;;6.75;2.95;;;;;;;;;;4984767;28;20387;-39
2021/10/04 01:33:01;;;;;;;7.82;3.25;;;;;;;;;;4985163;28;20039;-37
2021/10/04 01:35:27;;;;;;;7.90;2.58;;;;;;;;;;4992002;28;20049;-37
2021/10/04 01:37:52;;;;;;;10.32;2.38;;;;;;;;;;4990422;28;20072;-37
2021/10/04 01:40:18;;;;;;;5.22;2.80;;;;;;;;;;4992202;28;20083;-38
2021/10/04 01:42:44;;;;;;;12.88;3.85;;;;;;;;;;4988481;28;20096;-37
2021/10/04 01:45:12;;;;;;;8.02;3.60;;;;;;;;;;4989177;28;20108;-37
2021/10/04 01:47:37;;;;;;;8.43;2.83;;;;;;;;;;4991255;28;20082;-37
2021/10/04 01:50:03;;;;;;;9.13;2.30;;;;;;;;;;4988860;28;20422;-36
2021/10/04 01:52:29;;;;;;;12.25;2.53;;;;;;;;;;4988232;28;20097;-37
2021/10/04 01:54:54;;;;;;;7.35;2.90;;;;;;;;;;4988136;28;20134;-38
2021/10/04 01:57:19;;;;;;;7.43;3.60;;;;;;;;;;4988119;28;20022;-38
2021/10/04 01:59:45;;;;;;;13.55;3.13;;;;;;;;;;4991397;28;20380;-39
2021/10/04 02:02:10;;;;;;;9.77;3.42;;;;;;;;;;4990235;28;20080;-40
2021/10/04 02:04:35;;;;;;;6.32;2.13;;;;;;;;;;4991040;28;20042;-40
2021/10/04 02:07:01;;;;;;;4.50;1.60;;;;;;;;;;4991670;28;20454;-38
2021/10/04 02:09:26;;;;;;;8.35;2.10;;;;;;;;;;4987887;28;20109;-40
2021/10/04 02:11:51;;;;;;;3.15;1.75;;;;;;;;;;4988122;28;20087;-40
2021/10/04 02:14:17;;;;;;;4.75;1.50;;;;;;;;;;4986213;28;20027;-40
2021/10/04 02:16:42;;;;;;;6.43;2.42;;;;;;;;;;4989043;28;20018;-39
2021/10/04 02:19:08;;;;;;;4.13;1.63;;;;;;;;;;4989128;28;20692;-39
2021/10/04 02:21:34;;;;;;;2.28;1.50;;;;;;;;;;4988171;28;20037;-38
2021/10/04 02:23:59;;;;;;;7.55;2.45;;;;;;;;;;4986907;28;20022;-38
2021/10/04 02:26:24;;;;;;;2.95;1.52;;;;;;;;;;4992166;28;20087;-38
2021/10/04 02:28:50;;;;;;;9.68;2.08;;;;;;;;;;4990000;28;20026;-42
2021/10/04 02:31:16;;;;;;;6.10;2.80;;;;;;;;;;4990647;28;20030;-38
2021/10/04 02:33:42;;;;;;;4.38;1.65;;;;;;;;;;4990472;28;20513;-38
2021/10/04 02:36:07;;;;;;;5.30;2.10;;;;;;;;;;4985213;28;20038;-39
2021/10/04 02:38:32;;;;;;;4.03;1.80;;;;;;;;;;4991306;28;20092;-41
2021/10/04 02:40:58;;;;;;;3.72;1.52;;;;;;;;;;4988689;28;20018;-43
2021/10/04 02:43:23;;;;;;;2.95;1.98;;;;;;;;;;4985662;28;20046;-40
2021/10/04 02:45:49;;;;;;;18.77;3.00;;;;;;;;;;4987730;28;20538;-39
2021/10/04 02:48:14;;;;;;;4.88;1.77;;;;;;;;;;4986812;28;20022;-43
2021/10/04 02:50:40;;;;;;;9.55;1.75;;;;;;;;;;4989255;28;20453;-38
2021/10/04 02:53:05;;;;;;;7.82;2.15;;;;;;;;;;4989141;28;20110;-37
2021/10/04 02:55:31;;;;;;;10.07;1.98;;;;;;;;;;4990742;28;20705;-44
2021/10/04 02:57:56;;;;;;;4.28;1.42;;;;;;;;;;4986710;28;20360;-42
2021/10/04 03:00:21;;;;;;;4.05;1.50;;;;;;;;;;4982976;28;20483;-40
2021/10/04 03:02:46;;;;;;;1.90;0.98;;;;;;;;;;4985756;28;20688;-40
2021/10/04 03:05:12;;;;;;;8.48;2.13;;;;;;;;;;4986567;28;20022;-37
2021/10/04 03:07:37;;;;;;;9.07;2.95;;;;;;;;;;4986251;28;20029;-39
2021/10/04 03:10:03;;;;;;;10.63;3.05;;;;;;;;;;4993225;28;20195;-43
2021/10/04 03:12:29;;;;;;;5.13;1.95;;;;;;;;;;4993552;28;20014;-42
2021/10/04 03:14:54;;;;;;;9.10;3.78;;;;;;;;;;4989141;28;20029;-38
2021/10/04 03:17:19;;;;;;;9.30;3.35;;;;;;;;;;4986804;28;20178;-41
2021/10/04 03:19:45;;;;;;;6.25;2.53;;;;;;;;;;4988803;28;20329;-37
2021/10/04 03:22:10;;;;;;;3.53;1.83;;;;;;;;;;4986283;28;20034;-38
2021/10/04 03:24:35;;;;;;;5.72;2.17;;;;;;;;;;4986215;28;20017;-38
2021/10/04 03:27:01;;;;;;;1.60;0.90;;;;;;;;;;4990129;28;20022;-40
2021/10/04 03:29:26;;;;;;;1.38;0.52;;;;;;;;;;4988061;28;20018;-37
2021/10/04 03:31:52;;;;;;;3.47;1.67;;;;;;;;;;4988540;28;20492;-40
2021/10/04 03:34:17;;;;;;;4.18;1.42;;;;;;;;;;4989353;28;20574;-38
2021/10/04 03:36:44;;;;;;;4.97;1.63;;;;;;;;;;4987361;28;20033;-40
2021/10/04 03:39:09;;;;;;;4.13;1.45;;;;;;;;;;4987584;28;20029;-37
2021/10/04 03:41:35;;;;;;;2.30;0.68;;;;;;;;;;4989754;28;20027;-39
2021/10/04 03:44:00;;;;;;;9.65;1.70;;;;;;;;;;4988487;28;20046;-38
2021/10/04 03:46:25;;;;;;;2.83;1.20;;;;;;;;;;4988303;28;20067;-40
2021/10/04 03:48:51;;;;;;;1.25;0.80;;;;;;;;;;4987972;28;20041;-39
2021/10/04 03:51:17;;;;;;;1.42;0.68;;;;;;;;;;4989148;28;20384;-37
2021/10/04 03:53:42;;;;;;;5.07;1.23;;;;;;;;;;4985775;28;20086;-37
2021/10/04 03:56:08;;;;;;;2.10;0.77;;;;;;;;;;4988673;28;20078;-38
2021/10/04 03:58:33;;;;;;;2.33;1.48;;;;;;;;;;4987233;28;20025;-39
2021/10/04 04:00:58;;;;;;;8.18;2.42;;;;;;;;;;4987967;28;20058;-39
2021/10/04 04:03:24;;;;;;;8.77;1.73;;;;;;;;;;4987254;28;20784;-37
2021/10/04 04:05:49;;;;;;;1.85;0.98;;;;;;;;;;4992168;28;20494;-39
2021/10/04 04:08:14;;;;;;;2.65;1.30;;;;;;;;;;4987748;28;20070;-37
2021/10/04 04:10:40;;;;;;;5.03;1.15;;;;;;;;;;4989171;28;20026;-38
2021/10/04 04:13:05;;;;;;;5.50;1.50;;;;;;;;;;4988219;28;20087;-38
2021/10/04 04:15:30;;;;;;;4.35;1.42;;;;;;;;;;4988763;28;20023;-38
2021/10/04 04:17:55;;;;;;;1.67;0.80;;;;;;;;;;4987970;28;20026;-38
2021/10/04 04:20:21;;;;;;;2.05;1.35;;;;;;;;;;4987582;28;20030;-39
2021/10/04 04:22:46;;;;;;;0.88;0.77;;;;;;;;;;4980745;28;20042;-40
2021/10/04 04:25:12;;;;;;;8.82;2.42;;;;;;;;;;4988806;28;20746;-40
2021/10/04 04:27:38;;;;;;;5.70;2.38;;;;;;;;;;4986337;28;20068;-41
2021/10/04 04:30:04;;;;;;;2.42;1.45;;;;;;;;;;4985450;28;20540;-41
2021/10/04 04:32:30;;;;;;;1.77;0.68;;;;;;;;;;4996241;28;20078;-40
2021/10/04 04:34:55;;;;;;;5.85;0.55;;;;;;;;;;4988315;28;20019;-38
2021/10/04 04:37:20;;;;;;;4.68;0.85;;;;;;;;;;4991935;28;20378;-37
2021/10/04 04:39:45;;;;;;;1.23;0.30;;;;;;;;;;4987767;28;20070;-38
2021/10/04 04:42:11;;;;;;;0.45;0.30;;;;;;;;;;4984724;28;20125;-39
2021/10/04 04:44:36;;;;;;;3.58;1.83;;;;;;;;;;4987789;28;20149;-38
2021/10/04 04:47:02;;;;;;;3.88;1.08;;;;;;;;;;4983930;28;20045;-37
2021/10/04 04:49:27;;;;;;;2.08;1.15;;;;;;;;;;4987747;28;20337;-38
2021/10/04 04:51:53;;;;;;;1.08;0.60;;;;;;;;;;4986691;28;20467;-38
2021/10/04 04:54:19;;;;;;;1.27;0.70;;;;;;;;;;4986830;28;20032;-40
2021/10/04 04:56:44;;;;;;;2.70;1.05;;;;;;;;;;4988531;28;20500;-37
2021/10/04 04:59:09;;;;;;;1.35;0.60;;;;;;;;;;4986251;28;20030;-37
2021/10/04 05:01:34;;;;;;;1.40;0.70;;;;;;;;;;4992315;28;20577;-37
2021/10/04 05:04:00;;;;;;;2.42;0.93;;;;;;;;;;4987344;28;20042;-42
2021/10/04 05:06:25;;;;;;;1.35;0.60;;;;;;;;;;4989271;28;20465;-43
2021/10/04 05:08:50;;;;;;;1.50;0.60;;;;;;;;;;4990655;28;20610;-37
2021/10/04 05:11:16;;;;;;;1.45;0.52;;;;;;;;;;4990424;28;20023;-37
2021/10/04 05:13:41;;;;;;;0.63;0.55;;;;;;;;;;4988130;28;20033;-39
2021/10/04 05:16:07;;;;;;;1.02;0.45;;;;;;;;;;4990109;28;20532;-38
2021/10/04 05:18:32;;;;;;;3.35;1.33;;;;;;;;;;4992980;28;20116;-39
2021/10/04 05:20:58;;;;;;;3.47;1.52;;;;;;;;;;4987967;28;20117;-39
2021/10/04 05:23:23;;;;;;;6.43;2.05;;;;;;;;;;4991993;28;20053;-38
2021/10/04 05:25:48;;;;;;;6.22;1.25;;;;;;;;;;4989503;28;20380;-38
2021/10/04 05:28:14;;;;;;;7.05;1.70;;;;;;;;;;4990520;28;20143;-37
2021/10/04 05:30:39;;;;;;;6.38;1.38;;;;;;;;;;4990360;28;20038;-39
2021/10/04 05:33:04;;;;;;;11.95;10.32;;;;;;;;;;4994971;28;20048;-38
2021/10/04 05:35:30;;;;;;;4.03;2.00;;;;;;;;;;4989429;28;20358;-38
2021/10/04 05:37:55;;;;;;;3.95;1.98;;;;;;;;;;4986629;28;20058;-38
2021/10/04 05:40:21;;;;;;;7.78;1.50;;;;;;;;;;4988354;28;20027;-41
2021/10/04 05:42:46;;;;;;;5.28;1.23;;;;;;;;;;4993196;28;20093;-41
2021/10/04 05:45:12;;;;;;;3.83;2.00;;;;;;;;;;4993427;28;20050;-40
2021/10/04 05:47:38;;;;;;;1.98;1.48;;;;;;;;;;4987377;28;20030;-38
2021/10/04 05:50:04;;;;;;;4.07;0.88;;;;;;;;;;4987948;28;20417;-40
2021/10/04 05:52:29;;;;;;;4.32;1.20;;;;;;;;;;4988630;28;20117;-41
2021/10/04 05:54:55;;;;;;;4.72;1.35;;;;;;;;;;4987821;28;20026;-39
2021/10/04 05:57:20;;;;;;;3.25;0.95;;;;;;;;;;4987372;28;20499;-40
2021/10/04 05:59:46;;;;;;;2.67;1.50;;;;;;;;;;4986619;28;20117;-37
2021/10/04 06:02:11;;;;;;;7.60;1.63;;;;;;;;;;4981970;28;20683;-37
2021/10/04 06:04:36;;;;;;;3.83;1.23;;;;;;;;;;4982326;28;20091;-46
2021/10/04 06:07:02;;;;;;;4.45;1.10;;;;;;;;;;4986937;28;20030;-44
2021/10/04 06:09:27;;;;;;;2.53;0.63;;;;;;;;;;4985252;28;20474;-46
2021/10/04 06:11:52;;;;;;;4.25;1.52;;;;;;;;;;4984065;28;20022;-47
2021/10/04 06:14:18;;;;;;;4.72;1.27;;;;;;;;;;4991232;28;20038;-49
2021/10/04 06:16:43;;;;;;;4.32;1.98;;;;;;;;;;4987539;28;20026;-46
2021/10/04 06:19:08;;;;;;;2.65;0.88;;;;;;;;;;4991564;28;20034;-44
2021/10/04 06:21:34;;;;;;;3.13;1.17;;;;;;;;;;4986405;28;20018;-48
2021/10/04 06:23:59;;;;;;;3.28;1.77;;;;;;;;;;4986534;28;20113;-46
2021/10/04 06:26:25;;;;;;;13.93;1.70;;;;;;;;;;4987555;28;20029;-44
2021/10/04 06:28:50;;;;;;;0.88;0.60;;;;;;;;;;4987156;28;20036;-43
2021/10/04 06:31:16;;;;;;;1.55;0.47;;;;;;;;;;4990252;28;20027;-44
2021/10/04 06:33:41;;;;;;;0.38;0.28;;;;;;;;;;4987790;28;20035;-45
2021/10/04 06:36:09;;;;;;;4.68;0.70;;;;;;;;;;4988036;28;20030;-48
2021/10/04 06:38:35;;;;;;;1.73;0.82;;;;;;;;;;4986494;28;20057;-48
2021/10/04 06:41:00;;;;;;;1.02;0.65;;;;;;;;;;4988195;28;20483;-44
2021/10/04 06:43:25;;;;;;;2.20;0.80;;;;;;;;;;4986161;28;20046;-45
2021/10/04 06:45:50;;;;;;;2.95;0.60;;;;;;;;;;4991496;28;20026;-44
2021/10/04 06:48:16;;;;;;;1.80;0.75;;;;;;;;;;4991337;28;20044;-51
2021/10/04 06:50:41;;;;;;;2.92;1.08;;;;;;;;;;4991841;28;20731;-43
2021/10/04 06:53:07;;;;;;;3.35;1.85;;;;;;;;;;4988822;28;20061;-46
2021/10/04 06:55:32;;;;;;;1.10;0.35;;;;;;;;;;4984436;28;20037;-47
2021/10/04 06:57:57;;;;;;;5.70;1.60;;;;;;;;;;4985958;28;20034;-51
2021/10/04 07:00:23;;;;;;;0.82;0.57;;;;;;;;;;4985660;28;20049;-46
2021/10/04 07:02:49;;;;;;;1.65;0.93;;;;;;;;;;4984634;28;20082;-51
2021/10/04 07:05:14;;;;;;;0.43;0.25;;;;;;;;;;4987862;28;20030;-46
2021/10/04 07:07:40;;;;;;;1.33;0.40;;;;;;;;;;4988205;28;20495;-44
2021/10/04 07:10:05;;;;;;;5.28;3.90;;;;;;;;;;4983242;28;20482;-49
2021/10/04 07:12:30;;;;;;;1.05;0.98;;;;;;;;;;4987334;28;20119;-46
2021/10/04 07:14:56;;;;;;;2.47;0.55;;;;;;;;;;4987001;28;20022;-47
2021/10/04 07:17:21;;;;;;;0.68;0.50;;;;;;;;;;4988746;28;20039;-50
2021/10/04 07:19:47;;;;;;;9.55;1.80;;;;;;;;;;4983564;28;20050;-45
2021/10/04 07:22:12;;;;;;;1.35;0.93;;;;;;;;;;4986440;28;20499;-45
2021/10/04 07:24:38;;;;;;;1.60;1.05;;;;;;;;;;4991279;28;20021;-47
2021/10/04 07:27:04;;;;;;;2.50;0.73;;;;;;;;;;4988389;28;20537;-49
2021/10/04 07:29:30;;;;;;;43.75;12.25;;;;;;;;;;4986846;28;20031;-49
2021/10/04 07:31:55;;;;;;;9.90;2.63;;;;;;;;;;4984302;28;20014;-48
2021/10/04 07:34:21;;;;;;;1.15;0.50;;;;;;;;;;4988148;28;20399;-55
2021/10/04 07:36:46;;;;;;;1.02;0.43;;;;;;;;;;4990240;28;20061;-51
2021/10/04 07:39:11;;;;;;;0.98;0.63;;;;;;;;;;4988362;28;20487;-53
2021/10/04 07:41:37;;;;;;;9.27;1.08;;;;;;;;;;4986623;28;20046;-47
2021/10/04 07:44:02;;;;;;;1.20;0.55;;;;;;;;;;4985808;28;20087;-50
2021/10/04 07:46:27;;;;;;;0.50;0.40;;;;;;;;;;4985525;28;20134;-48
2021/10/04 07:48:53;;;;;;;5.65;1.25;;;;;;;;;;4987477;28;20101;-50
2021/10/04 07:51:18;;;;;;;6.40;2.05;;;;;;;;;;4984966;28;20022;-51
2021/10/04 07:53:43;;;;;;;6.75;1.33;;;;;;;;;;4989045;28;20103;-47
2021/10/04 07:56:09;;;;;;;2.03;0.93;;;;;;;;;;4986932;28;20038;-49
2021/10/04 07:58:34;;;;;;;2.92;0.50;;;;;;;;;;4984599;28;20764;-46
2021/10/04 08:01:00;;;;;;;13.27;1.42;;;;;;;;;;4989661;28;20030;-49
2021/10/04 08:03:25;;;;;;;11.45;2.08;;;;;;;;;;4984121;28;20402;-48
2021/10/04 08:05:51;;;;;;;4.63;1.73;;;;;;;;;;4986010;28;20490;-49
2021/10/04 08:08:16;;;;;;;1.17;0.45;;;;;;;;;;4986501;28;20026;-48
2021/10/04 08:10:41;;;;;;;1.20;0.50;;;;;;;;;;4989591;28;20300;-45
2021/10/04 08:13:07;;;;;;;5.07;1.20;;;;;;;;;;4985070;28;20026;-47
2021/10/04 08:15:32;;;;;;;5.47;0.63;;;;;;;;;;4987122;28;20080;-48
2021/10/04 08:17:57;;;;;;;2.83;1.65;;;;;;;;;;4982160;28;20038;-41
2021/10/04 08:20:23;;;;;;;3.08;0.90;;;;;;;;;;4985526;28;20030;-49
2021/10/04 08:22:48;;;;;;;1.40;0.73;;;;;;;;;;4984765;28;20022;-51
2021/10/04 08:25:14;;;;;;;6.75;1.80;;;;;;;;;;4988490;28;20022;-46
2021/10/04 08:27:40;;;;;;;6.47;1.58;;;;;;;;;;4979454;28;20130;-46
2021/10/04 08:30:06;;;;;;;8.20;1.73;;;;;;;;;;4980024;28;20023;-46
2021/10/04 08:32:31;;;;;;;3.03;0.90;;;;;;;;;;4985220;28;20025;-49
2021/10/04 08:34:56;;;;;;;6.70;0.80;;;;;;;;;;4984973;28;20030;-47
2021/10/04 08:37:22;;;;;;;1.40;0.82;;;;;;;;;;4990206;28;20061;-47
2021/10/04 08:39:47;;;;;;;2.10;0.93;;;;;;;;;;4986100;28;20076;-49
2021/10/04 08:42:13;;;;;;;12.55;1.83;;;;;;;;;;4980977;28;20026;-49
2021/10/04 08:44:38;;;;;;;6.88;1.08;;;;;;;;;;4985697;28;20125;-48
2021/10/04 08:47:07;;;;;;;2.53;0.82;;;;;;;;;;4986519;28;20042;-46
2021/10/04 08:49:33;;;;;;;9.65;1.63;;;;;;;;;;4989532;28;20030;-43
2021/10/04 08:52:00;;;;;;;2.53;1.33;;;;;;;;;;4981883;28;20218;-47
2021/10/04 08:54:26;;;;;;;6.53;1.55;;;;;;;;;;4983947;28;20554;-50
2021/10/04 08:56:52;;;;;;;17.05;2.72;;;;;;;;;;4985440;28;20075;-43
2021/10/04 08:59:18;;;;;;;3.03;1.05;;;;;;;;;;4984292;28;20033;-46
2021/10/04 09:01:43;;;;;;;6.97;1.23;;;;;;;;;;4988951;28;20547;-43
2021/10/04 09:04:09;;;;;;;3.40;1.67;;;;;;;;;;4985240;28;20027;-43
2021/10/04 09:06:34;;;;;;;4.20;1.90;;;;;;;;;;4987432;28;20022;-44
2021/10/04 09:09:03;;;;;;;7.90;2.60;;;;;;;;;;4988661;28;20035;-45
2021/10/04 09:11:39;;;;;;;4.38;1.10;;;;;;;;;;4992318;28;20156;-45
2021/10/04 09:14:06;;;;;;;2.97;1.85;;;;;;;;;;4990909;28;20091;-45
2021/10/04 09:16:50;;;;;;;1.35;0.60;;;;;;;;;;4981561;28;20122;-45
2021/10/04 09:19:19;;;;;;;7.13;0.98;;;;;;;;;;4980820;28;20066;-44
2021/10/04 09:22:03;;;;;;;3.15;1.67;;;;;;;;;;4984331;28;20036;-42
2021/10/04 09:24:28;;;;;;;2.58;0.57;;;;;;;;;;4986936;28;20026;-40
2021/10/04 09:26:54;;;;;;;12.80;1.02;;;;;;;;;;4990675;28;20030;-45
2021/10/04 09:29:20;;;;;;;0.70;0.43;;;;;;;;;;4986674;28;20034;-49
2021/10/04 09:31:46;;;;;;;0.90;0.52;;;;;;;;;;4987591;28;20034;-43
2021/10/04 09:34:18;;;;;;;1.45;1.05;;;;;;;;;;4982304;28;20030;-48
2021/10/04 09:36:58;;;;;;;8.55;0.70;;;;;;;;;;4985013;28;20187;-44
2021/10/04 09:39:35;;;;;;;4.35;2.28;;;;;;;;;;4984072;28;20032;-45
2021/10/04 09:42:19;;;;;;;6.85;1.92;;;;;;;;;;4980988;28;20125;-44
2021/10/04 09:44:56;;;;;;;14.15;0.98;;;;;;;;;;4991832;28;20089;-43
2021/10/04 09:47:26;;;;;;;11.45;3.20;;;;;;;;;;4985446;28;20033;-43
2021/10/04 09:49:54;;;;;;;1.15;1.02;;;;;;;;;;4993005;28;20072;-47
2021/10/04 09:52:31;;;;;;;0.70;0.30;;;;;;;;;;4987865;28;20785;-50
2021/10/04 09:54:57;;;;;;;7.28;1.20;;;;;;;;;;4983818;28;20025;-44
2021/10/04 09:57:22;;;;;;;3.50;0.40;;;;;;;;;;4989494;28;20022;-49
2021/10/04 09:59:48;;;;;;;3.03;0.90;;;;;;;;;;4992582;28;20018;-48
2021/10/04 10:02:14;;;;;;;5.55;4.00;;;;;;;;;;4986774;28;20499;-46
2021/10/04 10:04:41;;;;;;;5.03;3.20;;;;;;;;;;4987501;28;20117;-47
2021/10/04 10:07:09;;;;;;;4.85;3.80;;;;;;;;;;4989970;28;20023;-43
2021/10/04 10:09:35;;;;;;;5.07;2.90;;;;;;;;;;4983515;28;20498;-43
2021/10/04 10:12:00;;;;;;;2.47;1.30;;;;;;;;;;4983225;28;20155;-43
2021/10/04 10:14:25;;;;;;;3.78;2.15;;;;;;;;;;4990629;28;20474;-44
2021/10/04 10:16:53;;;;;;;5.90;1.83;;;;;;;;;;4988896;28;20037;-43
2021/10/04 10:19:22;;;;;;;2.67;2.10;;;;;;;;;;4992391;28;20034;-47
2021/10/04 10:21:48;;;;;;;6.85;3.35;;;;;;;;;;4988148;28;20509;-50
2021/10/04 10:24:13;;;;;;;2.58;0.73;;;;;;;;;;4989310;28;20061;-49
2021/10/04 10:26:40;;;;;;;4.65;1.38;;;;;;;;;;4985931;28;20411;-46
2021/10/04 10:29:08;;;;;;;2.38;1.48;;;;;;;;;;4985910;28;20023;-50
2021/10/04 10:32:00;;;;;;;2.90;1.88;;;;;;;;;;4984662;28;20042;-43
2021/10/04 10:34:25;;;;;;;;;;;;;;;;;;4991584;28;20042;-47
2021/10/04 10:37:00;;;;;;;11.13;1.48;;;;;;;;;;4989189;28;19916;-46
2021/10/04 10:39:32;;;;;;;2.75;1.20;;;;;;;;;;4985371;28;20064;-43
2021/10/04 10:42:15;;;;;;;3.75;2.00;;;;;;;;;;4982952;28;20750;-46
2021/10/04 10:44:56;;;;;;;4.63;1.40;;;;;;;;;;4987981;28;20050;-45
2021/10/04 10:47:33;;;;;;;1.17;0.82;;;;;;;;;;4984616;28;20061;-42
2021/10/04 10:49:58;;;;;;;8.40;4.00;;;;;;;;;;4983188;28;20022;-42
2021/10/04 10:52:25;;;;;;;3.45;2.22;;;;;;;;;;4987203;28;20026;-50
2021/10/04 10:54:52;;;;;;;2.45;1.60;;;;;;;;;;4990642;28;20033;-45
2021/10/04 10:57:18;;;;;;;2.90;1.02;;;;;;;;;;4985010;28;20031;-43
2021/10/04 10:59:43;;;;;;;2.67;1.58;;;;;;;;;;4993735;28;20027;-43
2021/10/04 11:02:27;;;;;;;1.98;0.95;;;;;;;;;;4989574;28;20045;-49
2021/10/04 11:04:53;;;;;;;7.85;2.08;;;;;;;;;;4992608;28;20038;-43
2021/10/04 11:07:47;;;;;;;1.90;0.95;;;;;;;;;;4988661;28;20538;-43
2021/10/04 11:10:12;;;;;;;1.88;0.60;;;;;;;;;;5042239;28;20124;-43
2021/10/04 11:12:56;;;;;;;5.75;1.30;;;;;;;;;;4990645;28;20022;-45
2021/10/04 11:15:28;;;;;;;8.25;2.35;;;;;;;;;;4991816;28;20026;-45
2021/10/04 11:17:54;;;;;;;1.88;1.05;;;;;;;;;;4988760;28;20455;-43
2021/10/04 11:20:19;;;;;;;3.88;1.40;;;;;;;;;;4987056;28;20029;-43
2021/10/04 11:22:44;;;;;;;4.15;0.70;;;;;;;;;;4988899;28;20036;-48
2021/10/04 11:25:10;;;;;;;12.73;1.60;;;;;;;;;;4987945;28;20026;-43
2021/10/04 11:27:46;;;;;;;3.35;1.70;;;;;;;;;;4991476;28;20527;-43
2021/10/04 11:30:12;;;;;;;1.65;0.98;;;;;;;;;;4986780;28;20052;-43
2021/10/04 11:32:37;;;;;;;7.10;2.08;;;;;;;;;;4990863;28;20022;-44
2021/10/04 11:35:14;;;;;;;1.88;0.73;;;;;;;;;;4991204;28;20036;-42
2021/10/04 11:37:40;;;;;;;3.80;1.83;;;;;;;;;;4988634;28;20033;-44
2021/10/04 11:40:06;;;;;;;3.40;2.30;;;;;;;;;;4995944;28;20083;-42
2021/10/04 11:42:32;;;;;;;7.07;2.03;;;;;;;;;;4986809;28;20026;-46
2021/10/04 11:45:00;;;;;;;3.42;1.38;;;;;;;;;;4988930;28;20471;-43
2021/10/04 11:47:26;;;;;;;3.72;2.80;;;;;;;;;;4993399;28;20050;-44
2021/10/04 11:49:53;;;;;;;2.63;1.38;;;;;;;;;;4991931;28;20037;-48
2021/10/04 11:52:19;;;;;;;1.98;1.27;;;;;;;;;;4986304;28;20027;-42
2021/10/04 11:54:49;;;;;;;21.15;1.88;;;;;;;;;;4992951;28;20450;-48
2021/10/04 11:57:14;;;;;;;1.50;0.90;;;;;;;;;;4987540;28;20021;-41
2021/10/04 11:59:56;;;;;;;2.05;1.08;;;;;;;;;;4990222;28;20056;-41
2021/10/04 12:02:23;;;;;;;3.70;1.55;;;;;;;;;;4985980;28;20677;-42
2021/10/04 12:04:49;;;;;;;2.40;1.45;;;;;;;;;;4985976;28;20252;-46
2021/10/04 12:07:15;;;;;;;10.88;1.98;;;;;;;;;;4991052;28;20387;-47
2021/10/04 12:09:40;;;;;;;5.53;2.97;;;;;;;;;;4992003;28;20031;-46
2021/10/04 12:12:05;;;;;;;25.00;4.55;;;;;;;;;;4987684;28;20063;-44
2021/10/04 12:14:31;;;;;;;2.92;1.63;;;;;;;;;;4989167;28;20075;-44
2021/10/04 12:17:01;;;;;;;3.47;0.90;;;;;;;;;;4990481;28;20022;-46
2021/10/04 12:19:26;;;;;;;11.30;3.45;;;;;;;;;;4994623;28;20048;-46
2021/10/04 12:21:52;;;;;;;2.28;2.05;;;;;;;;;;4987418;28;20670;-49
2021/10/04 12:24:19;;;;;;;6.88;2.03;;;;;;;;;;4984064;28;20582;-45
2021/10/04 12:27:08;;;;;;;1.67;1.00;;;;;;;;;;4993417;28;20105;-46
2021/10/04 12:29:36;;;;;;;1.98;1.48;;;;;;;;;;4993344;28;20026;-45
2021/10/04 12:32:20;;;;;;;4.28;1.63;;;;;;;;;;4984948;28;20021;-48
2021/10/04 12:35:15;;;;;;;1.63;1.00;;;;;;;;;;4993141;28;20108;-46
2021/10/04 12:37:53;;;;;;;6.75;1.02;;;;;;;;;;5006232;28;20053;-43
2021/10/04 12:40:39;;;;;;;2.30;1.35;;;;;;;;;;4988196;28;20011;-45
2021/10/04 12:43:11;;;;;;;2.22;1.15;;;;;;;;;;4986721;28;20054;-44
2021/10/04 12:45:37;;;;;;;8.75;0.73;;;;;;;;;;4986998;28;20628;-48
2021/10/04 12:48:07;;;;;;;0.80;0.50;;;;;;;;;;4986549;28;20117;-47
2021/10/04 12:50:36;;;;;;;0.90;0.60;;;;;;;;;;4986299;28;20027;-47
2021/10/04 12:53:13;;;;;;;1.48;0.52;;;;;;;;;;4992019;28;20048;-51
2021/10/04 12:55:44;;;;;;;1.25;0.75;;;;;;;;;;4987682;28;20091;-46
2021/10/04 12:58:09;;;;;;;;;;;;;;;;;;4989719;28;20022;-48
2021/10/04 13:00:35;;;;;;;0.88;0.45;;;;;;;;;;4985480;28;20298;-43
2021/10/04 13:03:00;;;;;;;1.13;0.35;;;;;;;;;;4981399;28;20122;-46
2021/10/04 13:05:25;;;;;;;0.85;0.52;;;;;;;;;;4984918;28;20034;-50
2021/10/04 13:07:51;;;;;;;3.15;1.33;;;;;;;;;;4986132;28;20549;-46
2021/10/04 13:10:16;;;;;;;2.28;0.95;;;;;;;;;;4984273;28;20026;-47
2021/10/04 13:12:41;;;;;;;12.63;0.90;;;;;;;;;;4990776;28;20062;-47
2021/10/04 13:15:07;;;;;;;0.77;0.32;;;;;;;;;;4986567;28;20025;-50
2021/10/04 13:17:32;;;;;;;1.25;0.20;;;;;;;;;;4989295;28;20018;-45
2021/10/04 13:19:57;;;;;;;6.85;0.60;;;;;;;;;;4991892;28;20486;-51
2021/10/04 13:22:23;;;;;;;4.18;0.75;;;;;;;;;;4988904;28;20330;-46
2021/10/04 13:24:49;;;;;;;0.65;0.30;;;;;;;;;;4994560;28;20032;-41
2021/10/04 13:27:15;;;;;;;6.20;0.40;;;;;;;;;;4991723;28;20114;-43
2021/10/04 13:29:40;;;;;;;1.00;0.55;;;;;;;;;;4995443;28;20375;-45
2021/10/04 13:32:06;;;;;;;1.50;0.55;;;;;;;;;;4995463;28;20046;-45
2021/10/04 13:34:31;;;;;;;1.02;0.50;;;;;;;;;;4990032;28;20507;-45
2021/10/04 13:36:56;;;;;;;0.50;0.35;;;;;;;;;;4991155;28;20026;-48
2021/10/04 13:39:21;;;;;;;1.02;0.57;;;;;;;;;;4987641;28;20018;-49
2021/10/04 13:41:47;;;;;;;5.10;0.65;;;;;;;;;;4988748;28;20394;-46
2021/10/04 13:44:12;;;;;;;1.95;0.70;;;;;;;;;;4991628;28;20042;-47
2021/10/04 13:46:38;;;;;;;0.65;0.45;;;;;;;;;;4987481;28;20023;-48
2021/10/04 13:49:03;;;;;;;5.05;0.90;;;;;;;;;;4990978;28;20040;-48
2021/10/04 13:51:29;;;;;;;5.82;0.45;;;;;;;;;;4990739;28;20104;-47
2021/10/04 13:53:54;;;;;;;2.17;0.40;;;;;;;;;;4988295;28;20068;-43
2021/10/04 13:56:21;;;;;;;0.75;0.50;;;;;;;;;;4988470;28;20038;-46
2021/10/04 13:58:46;;;;;;;4.05;0.47;;;;;;;;;;4988252;28;20105;-47
2021/10/04 14:01:12;;;;;;;4.28;1.27;;;;;;;;;;4986434;28;20102;-47
2021/10/04 14:03:37;;;;;;;3.47;1.33;;;;;;;;;;4988988;28;20809;-47
2021/10/04 14:06:03;;;;;;;13.60;1.20;;;;;;;;;;4987123;28;20845;-49
2021/10/04 14:08:28;;;;;;;3.05;1.50;;;;;;;;;;4990209;28;20010;-49
2021/10/04 14:10:54;;;;;;;10.80;4.80;;;;;;;;;;4990700;28;20075;-49
2021/10/04 14:13:19;;;;;;;8.15;3.42;;;;;;;;;;4991113;28;20030;-46
2021/10/04 14:15:45;;;;;;;8.20;3.70;;;;;;;;;;4989877;28;20133;-45
2021/10/04 14:18:10;;;;;;;12.00;5.38;;;;;;;;;;4992128;28;20576;-45
2021/10/04 14:20:35;;;;;;;8.90;6.70;;;;;;;;;;4988836;28;20023;-44
2021/10/04 14:23:01;;;;;;;13.45;3.65;;;;;;;;;;4989968;28;20057;-46
2021/10/04 14:25:26;;;;;;;3.15;1.48;;;;;;;;;;4986479;28;20045;-48
2021/10/04 14:27:51;;;;;;;11.25;1.55;;;;;;;;;;4989471;28;20053;-45
2021/10/04 14:30:17;;;;;;;8.40;2.08;;;;;;;;;;4988701;28;20630;-44
2021/10/04 14:32:42;;;;;;;7.20;3.05;;;;;;;;;;4984252;28;20491;-45
2021/10/04 14:35:09;;;;;;;7.82;1.85;;;;;;;;;;4987271;28;20033;-43
2021/10/04 14:37:35;;;;;;;3.53;0.90;;;;;;;;;;4990027;28;20066;-44